sensor_id;sensor_type;location;lat;lon;timestamp;P1;durP1;ratioP1;P2;durP2;ratioP2
33864;SDS011;20159;51.072;13.526;2023-05-07T00:01:55;22.83;;;20.42;;
33864;SDS011;20159;51.072;13.526;2023-05-07T00:04:21;22.73;;;20.30;;
33864;SDS011;20159;51.072;13.526;2023-05-07T00:06:46;22.58;;;20.15;;
33864;SDS011;20159;51.072;13.526;2023-05-07T00:09:12;21.92;;;19.65;;
33864;SDS011;20159;51.072;13.526;2023-05-07T00:11:37;23.45;;;21.05;;
33864;SDS011;20159;51.072;13.526;2023-05-07T00:14:03;23.67;;;20.48;;
33864;SDS011;20159;51.072;13.526;2023-05-07T00:16:28;23.30;;;20.63;;
33864;SDS011;20159;51.072;13.526;2023-05-07T00:18:54;24.55;;;21.77;;
33864;SDS011;20159;51.072;13.526;2023-05-07T00:21:19;23.45;;;20.90;;
33864;SDS011;20159;51.072;13.526;2023-05-07T00:23:46;25.48;;;21.40;;
33864;SDS011;20159;51.072;13.526;2023-05-07T00:26:12;22.98;;;20.50;;
33864;SDS011;20159;51.072;13.526;2023-05-07T00:28:37;23.67;;;21.13;;
33864;SDS011;20159;51.072;13.526;2023-05-07T00:31:03;21.00;;;18.75;;
33864;SDS011;20159;51.072;13.526;2023-05-07T00:33:28;21.48;;;18.85;;
33864;SDS011;20159;51.072;13.526;2023-05-07T00:35:54;20.95;;;18.58;;
33864;SDS011;20159;51.072;13.526;2023-05-07T00:38:20;20.42;;;18.25;;
33864;SDS011;20159;51.072;13.526;2023-05-07T00:40:45;21.20;;;18.92;;
33864;SDS011;20159;51.072;13.526;2023-05-07T00:43:11;20.17;;;18.08;;
33864;SDS011;20159;51.072;13.526;2023-05-07T00:45:37;19.08;;;17.10;;
33864;SDS011;20159;51.072;13.526;2023-05-07T00:48:03;18.80;;;16.55;;
33864;SDS011;20159;51.072;13.526;2023-05-07T00:50:29;18.10;;;16.17;;
33864;SDS011;20159;51.072;13.526;2023-05-07T00:52:55;19.90;;;17.80;;
33864;SDS011;20159;51.072;13.526;2023-05-07T00:55:22;19.17;;;17.10;;
33864;SDS011;20159;51.072;13.526;2023-05-07T00:57:48;18.15;;;16.15;;
33864;SDS011;20159;51.072;13.526;2023-05-07T01:00:15;18.85;;;16.58;;
33864;SDS011;20159;51.072;13.526;2023-05-07T01:02:41;19.10;;;17.10;;
33864;SDS011;20159;51.072;13.526;2023-05-07T01:05:08;19.38;;;17.33;;
33864;SDS011;20159;51.072;13.526;2023-05-07T01:07:38;19.17;;;17.20;;
33864;SDS011;20159;51.072;13.526;2023-05-07T01:10:06;21.30;;;17.95;;
33864;SDS011;20159;51.072;13.526;2023-05-07T01:12:32;20.63;;;18.42;;
33864;SDS011;20159;51.072;13.526;2023-05-07T01:14:59;21.95;;;18.85;;
33864;SDS011;20159;51.072;13.526;2023-05-07T01:17:25;21.10;;;18.90;;
33864;SDS011;20159;51.072;13.526;2023-05-07T01:19:51;22.80;;;19.30;;
33864;SDS011;20159;51.072;13.526;2023-05-07T01:22:23;21.75;;;19.35;;
33864;SDS011;20159;51.072;13.526;2023-05-07T01:24:54;21.42;;;19.23;;
33864;SDS011;20159;51.072;13.526;2023-05-07T01:27:21;22.65;;;20.25;;
33864;SDS011;20159;51.072;13.526;2023-05-07T01:29:46;23.15;;;20.70;;
33864;SDS011;20159;51.072;13.526;2023-05-07T01:32:12;22.90;;;20.58;;
33864;SDS011;20159;51.072;13.526;2023-05-07T01:34:40;24.55;;;20.67;;
33864;SDS011;20159;51.072;13.526;2023-05-07T01:37:05;23.33;;;20.83;;
33864;SDS011;20159;51.072;13.526;2023-05-07T01:39:31;23.85;;;21.33;;
33864;SDS011;20159;51.072;13.526;2023-05-07T01:41:58;25.48;;;22.42;;
33864;SDS011;20159;51.072;13.526;2023-05-07T01:44:24;23.83;;;21.25;;
33864;SDS011;20159;51.072;13.526;2023-05-07T01:46:50;25.10;;;22.00;;
33864;SDS011;20159;51.072;13.526;2023-05-07T01:49:16;24.33;;;21.73;;
33864;SDS011;20159;51.072;13.526;2023-05-07T01:51:42;23.52;;;21.13;;
33864;SDS011;20159;51.072;13.526;2023-05-07T01:54:08;25.27;;;22.70;;
33864;SDS011;20159;51.072;13.526;2023-05-07T01:56:34;23.80;;;21.35;;
33864;SDS011;20159;51.072;13.526;2023-05-07T01:59:00;23.23;;;20.33;;
33864;SDS011;20159;51.072;13.526;2023-05-07T02:01:27;25.58;;;22.60;;
33864;SDS011;20159;51.072;13.526;2023-05-07T02:03:52;22.98;;;20.58;;
33864;SDS011;20159;51.072;13.526;2023-05-07T02:06:18;24.25;;;21.75;;
33864;SDS011;20159;51.072;13.526;2023-05-07T02:08:44;24.10;;;21.52;;
33864;SDS011;20159;51.072;13.526;2023-05-07T02:11:10;23.70;;;21.30;;
33864;SDS011;20159;51.072;13.526;2023-05-07T02:13:35;25.95;;;21.75;;
33864;SDS011;20159;51.072;13.526;2023-05-07T02:16:01;23.05;;;20.65;;
33864;SDS011;20159;51.072;13.526;2023-05-07T02:18:27;22.63;;;20.27;;
33864;SDS011;20159;51.072;13.526;2023-05-07T02:20:53;22.90;;;20.60;;
33864;SDS011;20159;51.072;13.526;2023-05-07T02:23:18;22.90;;;20.52;;
33864;SDS011;20159;51.072;13.526;2023-05-07T02:25:45;23.02;;;20.63;;
33864;SDS011;20159;51.072;13.526;2023-05-07T02:28:11;23.23;;;20.73;;
33864;SDS011;20159;51.072;13.526;2023-05-07T02:30:37;22.63;;;20.25;;
33864;SDS011;20159;51.072;13.526;2023-05-07T02:33:03;21.50;;;19.30;;
33864;SDS011;20159;51.072;13.526;2023-05-07T02:35:28;21.70;;;19.50;;
33864;SDS011;20159;51.072;13.526;2023-05-07T02:37:54;21.90;;;19.70;;
33864;SDS011;20159;51.072;13.526;2023-05-07T02:40:20;20.77;;;18.58;;
33864;SDS011;20159;51.072;13.526;2023-05-07T02:42:45;21.05;;;18.95;;
33864;SDS011;20159;51.072;13.526;2023-05-07T02:45:11;22.02;;;19.70;;
33864;SDS011;20159;51.072;13.526;2023-05-07T02:47:36;22.70;;;20.30;;
33864;SDS011;20159;51.072;13.526;2023-05-07T02:50:02;21.70;;;19.58;;
33864;SDS011;20159;51.072;13.526;2023-05-07T02:52:28;22.00;;;19.70;;
33864;SDS011;20159;51.072;13.526;2023-05-07T02:54:54;21.80;;;19.60;;
33864;SDS011;20159;51.072;13.526;2023-05-07T02:57:19;21.95;;;19.75;;
33864;SDS011;20159;51.072;13.526;2023-05-07T02:59:48;21.30;;;19.05;;
33864;SDS011;20159;51.072;13.526;2023-05-07T03:02:13;21.20;;;19.02;;
33864;SDS011;20159;51.072;13.526;2023-05-07T03:04:39;21.33;;;19.05;;
33864;SDS011;20159;51.072;13.526;2023-05-07T03:07:05;20.63;;;18.45;;
33864;SDS011;20159;51.072;13.526;2023-05-07T03:09:30;20.25;;;18.13;;
33864;SDS011;20159;51.072;13.526;2023-05-07T03:11:56;21.27;;;18.98;;
33864;SDS011;20159;51.072;13.526;2023-05-07T03:14:21;19.73;;;17.83;;
33864;SDS011;20159;51.072;13.526;2023-05-07T03:16:47;19.88;;;17.70;;
33864;SDS011;20159;51.072;13.526;2023-05-07T03:19:13;19.95;;;17.85;;
33864;SDS011;20159;51.072;13.526;2023-05-07T03:21:39;20.58;;;18.50;;
33864;SDS011;20159;51.072;13.526;2023-05-07T03:24:05;20.63;;;18.45;;
33864;SDS011;20159;51.072;13.526;2023-05-07T03:26:30;19.70;;;17.77;;
33864;SDS011;20159;51.072;13.526;2023-05-07T03:28:56;20.52;;;18.45;;
33864;SDS011;20159;51.072;13.526;2023-05-07T03:31:21;20.40;;;18.33;;
33864;SDS011;20159;51.072;13.526;2023-05-07T03:33:51;18.58;;;16.67;;
33864;SDS011;20159;51.072;13.526;2023-05-07T03:36:17;20.80;;;17.95;;
33864;SDS011;20159;51.072;13.526;2023-05-07T03:38:49;18.88;;;16.98;;
33864;SDS011;20159;51.072;13.526;2023-05-07T03:41:15;19.45;;;17.45;;
33864;SDS011;20159;51.072;13.526;2023-05-07T03:43:41;18.92;;;17.00;;
33864;SDS011;20159;51.072;13.526;2023-05-07T03:46:06;19.00;;;17.05;;
33864;SDS011;20159;51.072;13.526;2023-05-07T03:48:32;19.42;;;17.42;;
33864;SDS011;20159;51.072;13.526;2023-05-07T03:50:57;18.67;;;16.88;;
33864;SDS011;20159;51.072;13.526;2023-05-07T03:53:23;18.27;;;16.45;;
33864;SDS011;20159;51.072;13.526;2023-05-07T03:55:49;18.73;;;16.83;;
33864;SDS011;20159;51.072;13.526;2023-05-07T03:58:15;17.83;;;16.02;;
33864;SDS011;20159;51.072;13.526;2023-05-07T04:00:40;17.90;;;16.08;;
33864;SDS011;20159;51.072;13.526;2023-05-07T04:03:06;18.00;;;16.10;;
33864;SDS011;20159;51.072;13.526;2023-05-07T04:05:32;18.02;;;16.13;;
33864;SDS011;20159;51.072;13.526;2023-05-07T04:07:58;20.10;;;15.98;;
33864;SDS011;20159;51.072;13.526;2023-05-07T04:10:24;17.27;;;15.52;;
33864;SDS011;20159;51.072;13.526;2023-05-07T04:12:50;17.98;;;16.02;;
33864;SDS011;20159;51.072;13.526;2023-05-07T04:15:16;17.23;;;15.40;;
33864;SDS011;20159;51.072;13.526;2023-05-07T04:17:41;18.00;;;16.20;;
33864;SDS011;20159;51.072;13.526;2023-05-07T04:20:12;17.40;;;15.57;;
33864;SDS011;20159;51.072;13.526;2023-05-07T04:22:39;17.95;;;14.85;;
33864;SDS011;20159;51.072;13.526;2023-05-07T04:25:05;19.75;;;15.52;;
33864;SDS011;20159;51.072;13.526;2023-05-07T04:27:31;16.42;;;14.73;;
33864;SDS011;20159;51.072;13.526;2023-05-07T04:29:57;17.45;;;15.70;;
33864;SDS011;20159;51.072;13.526;2023-05-07T04:32:22;17.75;;;15.93;;
33864;SDS011;20159;51.072;13.526;2023-05-07T04:34:49;19.63;;;16.63;;
33864;SDS011;20159;51.072;13.526;2023-05-07T04:37:15;16.60;;;14.77;;
33864;SDS011;20159;51.072;13.526;2023-05-07T04:39:41;16.77;;;15.02;;
33864;SDS011;20159;51.072;13.526;2023-05-07T04:42:06;18.02;;;15.57;;
33864;SDS011;20159;51.072;13.526;2023-05-07T04:44:33;17.45;;;15.65;;
33864;SDS011;20159;51.072;13.526;2023-05-07T04:46:59;17.50;;;15.75;;
33864;SDS011;20159;51.072;13.526;2023-05-07T04:49:25;18.33;;;16.38;;
33864;SDS011;20159;51.072;13.526;2023-05-07T04:51:51;18.70;;;16.75;;
33864;SDS011;20159;51.072;13.526;2023-05-07T04:54:16;19.05;;;16.98;;
33864;SDS011;20159;51.072;13.526;2023-05-07T04:56:42;18.50;;;16.60;;
33864;SDS011;20159;51.072;13.526;2023-05-07T04:59:07;19.55;;;17.45;;
33864;SDS011;20159;51.072;13.526;2023-05-07T05:01:33;19.70;;;17.42;;
33864;SDS011;20159;51.072;13.526;2023-05-07T05:03:58;21.48;;;16.77;;
33864;SDS011;20159;51.072;13.526;2023-05-07T05:06:25;18.80;;;16.88;;
33864;SDS011;20159;51.072;13.526;2023-05-07T05:08:50;18.23;;;16.33;;
33864;SDS011;20159;51.072;13.526;2023-05-07T05:11:19;19.23;;;16.65;;
33864;SDS011;20159;51.072;13.526;2023-05-07T05:13:45;19.25;;;16.75;;
33864;SDS011;20159;51.072;13.526;2023-05-07T05:16:13;18.80;;;16.75;;
33864;SDS011;20159;51.072;13.526;2023-05-07T05:18:39;18.77;;;15.90;;
33864;SDS011;20159;51.072;13.526;2023-05-07T05:21:05;17.63;;;15.75;;
33864;SDS011;20159;51.072;13.526;2023-05-07T05:23:30;18.75;;;15.48;;
33864;SDS011;20159;51.072;13.526;2023-05-07T05:25:56;16.83;;;15.00;;
33864;SDS011;20159;51.072;13.526;2023-05-07T05:28:24;17.70;;;15.25;;
33864;SDS011;20159;51.072;13.526;2023-05-07T05:30:50;17.80;;;15.40;;
33864;SDS011;20159;51.072;13.526;2023-05-07T05:33:16;18.70;;;15.52;;
33864;SDS011;20159;51.072;13.526;2023-05-07T05:35:41;17.33;;;15.38;;
33864;SDS011;20159;51.072;13.526;2023-05-07T05:38:07;17.77;;;15.70;;
33864;SDS011;20159;51.072;13.526;2023-05-07T05:40:33;19.20;;;16.45;;
33864;SDS011;20159;51.072;13.526;2023-05-07T05:42:58;20.10;;;16.60;;
33864;SDS011;20159;51.072;13.526;2023-05-07T05:45:24;21.15;;;17.58;;
33864;SDS011;20159;51.072;13.526;2023-05-07T05:47:50;19.67;;;17.10;;
33864;SDS011;20159;51.072;13.526;2023-05-07T05:50:15;18.83;;;16.83;;
33864;SDS011;20159;51.072;13.526;2023-05-07T05:52:41;17.55;;;15.52;;
33864;SDS011;20159;51.072;13.526;2023-05-07T05:55:07;18.17;;;15.65;;
33864;SDS011;20159;51.072;13.526;2023-05-07T05:57:33;16.88;;;14.85;;
33864;SDS011;20159;51.072;13.526;2023-05-07T05:59:59;16.92;;;15.13;;
33864;SDS011;20159;51.072;13.526;2023-05-07T06:02:26;16.80;;;14.30;;
33864;SDS011;20159;51.072;13.526;2023-05-07T06:04:51;16.88;;;14.88;;
33864;SDS011;20159;51.072;13.526;2023-05-07T06:07:17;17.27;;;14.57;;
33864;SDS011;20159;51.072;13.526;2023-05-07T06:09:43;16.08;;;14.38;;
33864;SDS011;20159;51.072;13.526;2023-05-07T06:12:09;17.23;;;14.77;;
33864;SDS011;20159;51.072;13.526;2023-05-07T06:14:34;16.58;;;14.35;;
33864;SDS011;20159;51.072;13.526;2023-05-07T06:17:00;15.70;;;14.10;;
33864;SDS011;20159;51.072;13.526;2023-05-07T06:19:25;16.20;;;14.50;;
33864;SDS011;20159;51.072;13.526;2023-05-07T06:21:53;15.32;;;13.73;;
33864;SDS011;20159;51.072;13.526;2023-05-07T06:24:18;17.63;;;14.75;;
33864;SDS011;20159;51.072;13.526;2023-05-07T06:26:44;15.85;;;14.25;;
33864;SDS011;20159;51.072;13.526;2023-05-07T06:29:10;15.27;;;13.27;;
33864;SDS011;20159;51.072;13.526;2023-05-07T06:31:35;15.98;;;13.65;;
33864;SDS011;20159;51.072;13.526;2023-05-07T06:34:00;15.48;;;13.80;;
33864;SDS011;20159;51.072;13.526;2023-05-07T06:36:27;14.27;;;12.63;;
33864;SDS011;20159;51.072;13.526;2023-05-07T06:38:53;13.55;;;12.02;;
33864;SDS011;20159;51.072;13.526;2023-05-07T06:41:18;13.57;;;12.18;;
33864;SDS011;20159;51.072;13.526;2023-05-07T06:43:44;14.05;;;12.02;;
33864;SDS011;20159;51.072;13.526;2023-05-07T06:46:09;12.93;;;11.63;;
33864;SDS011;20159;51.072;13.526;2023-05-07T06:48:35;15.25;;;12.65;;
33864;SDS011;20159;51.072;13.526;2023-05-07T06:51:00;12.25;;;11.05;;
33864;SDS011;20159;51.072;13.526;2023-05-07T06:53:26;12.68;;;11.30;;
33864;SDS011;20159;51.072;13.526;2023-05-07T06:55:53;12.60;;;11.25;;
33864;SDS011;20159;51.072;13.526;2023-05-07T06:58:18;11.60;;;10.40;;
33864;SDS011;20159;51.072;13.526;2023-05-07T07:00:44;11.63;;;10.07;;
33864;SDS011;20159;51.072;13.526;2023-05-07T07:03:10;11.75;;;10.32;;
33864;SDS011;20159;51.072;13.526;2023-05-07T07:05:36;10.73;;;9.63;;
33864;SDS011;20159;51.072;13.526;2023-05-07T07:08:02;12.00;;;10.30;;
33864;SDS011;20159;51.072;13.526;2023-05-07T07:10:27;12.35;;;10.40;;
33864;SDS011;20159;51.072;13.526;2023-05-07T07:12:53;11.38;;;10.18;;
33864;SDS011;20159;51.072;13.526;2023-05-07T07:15:19;10.98;;;9.82;;
33864;SDS011;20159;51.072;13.526;2023-05-07T07:17:45;12.85;;;10.75;;
33864;SDS011;20159;51.072;13.526;2023-05-07T07:20:11;11.00;;;9.90;;
33864;SDS011;20159;51.072;13.526;2023-05-07T07:22:36;11.35;;;9.95;;
33864;SDS011;20159;51.072;13.526;2023-05-07T07:25:02;11.82;;;9.98;;
33864;SDS011;20159;51.072;13.526;2023-05-07T07:27:28;10.02;;;8.95;;
33864;SDS011;20159;51.072;13.526;2023-05-07T07:29:53;10.57;;;9.48;;
33864;SDS011;20159;51.072;13.526;2023-05-07T07:32:18;9.15;;;8.18;;
33864;SDS011;20159;51.072;13.526;2023-05-07T07:34:44;9.45;;;8.48;;
33864;SDS011;20159;51.072;13.526;2023-05-07T07:37:09;10.02;;;8.52;;
33864;SDS011;20159;51.072;13.526;2023-05-07T07:39:35;9.90;;;8.80;;
33864;SDS011;20159;51.072;13.526;2023-05-07T07:42:02;10.98;;;8.80;;
33864;SDS011;20159;51.072;13.526;2023-05-07T07:44:28;9.98;;;8.85;;
33864;SDS011;20159;51.072;13.526;2023-05-07T07:46:53;9.73;;;8.75;;
33864;SDS011;20159;51.072;13.526;2023-05-07T07:49:19;9.50;;;8.45;;
33864;SDS011;20159;51.072;13.526;2023-05-07T07:51:44;9.90;;;8.70;;
33864;SDS011;20159;51.072;13.526;2023-05-07T07:54:10;8.70;;;7.80;;
33864;SDS011;20159;51.072;13.526;2023-05-07T07:56:36;8.90;;;7.97;;
33864;SDS011;20159;51.072;13.526;2023-05-07T07:59:01;8.88;;;7.65;;
33864;SDS011;20159;51.072;13.526;2023-05-07T08:01:29;9.15;;;8.23;;
33864;SDS011;20159;51.072;13.526;2023-05-07T08:03:55;8.50;;;7.60;;
33864;SDS011;20159;51.072;13.526;2023-05-07T08:06:20;8.75;;;6.93;;
33864;SDS011;20159;51.072;13.526;2023-05-07T08:08:46;6.95;;;6.25;;
33864;SDS011;20159;51.072;13.526;2023-05-07T08:11:11;7.22;;;6.53;;
33864;SDS011;20159;51.072;13.526;2023-05-07T08:13:37;8.63;;;6.13;;
33864;SDS011;20159;51.072;13.526;2023-05-07T08:16:03;6.35;;;5.75;;
33864;SDS011;20159;51.072;13.526;2023-05-07T08:18:30;6.30;;;5.70;;
33864;SDS011;20159;51.072;13.526;2023-05-07T08:20:55;6.63;;;6.03;;
33864;SDS011;20159;51.072;13.526;2023-05-07T08:23:21;6.57;;;5.97;;
33864;SDS011;20159;51.072;13.526;2023-05-07T08:25:48;6.00;;;5.40;;
33864;SDS011;20159;51.072;13.526;2023-05-07T08:28:14;6.35;;;5.75;;
33864;SDS011;20159;51.072;13.526;2023-05-07T08:30:39;7.80;;;5.63;;
33864;SDS011;20159;51.072;13.526;2023-05-07T08:33:05;6.97;;;6.28;;
33864;SDS011;20159;51.072;13.526;2023-05-07T08:35:30;5.85;;;5.28;;
33864;SDS011;20159;51.072;13.526;2023-05-07T08:37:56;5.57;;;5.07;;
33864;SDS011;20159;51.072;13.526;2023-05-07T08:40:23;6.45;;;5.25;;
33864;SDS011;20159;51.072;13.526;2023-05-07T08:42:51;5.45;;;4.95;;
33864;SDS011;20159;51.072;13.526;2023-05-07T08:45:18;5.97;;;5.47;;
33864;SDS011;20159;51.072;13.526;2023-05-07T08:47:46;7.65;;;5.93;;
33864;SDS011;20159;51.072;13.526;2023-05-07T08:50:16;5.13;;;4.68;;
33864;SDS011;20159;51.072;13.526;2023-05-07T08:52:42;5.90;;;5.30;;
33864;SDS011;20159;51.072;13.526;2023-05-07T08:55:08;4.85;;;4.35;;
33864;SDS011;20159;51.072;13.526;2023-05-07T08:57:35;4.68;;;4.28;;
33864;SDS011;20159;51.072;13.526;2023-05-07T09:00:01;4.63;;;4.22;;
33864;SDS011;20159;51.072;13.526;2023-05-07T09:02:28;5.43;;;4.93;;
33864;SDS011;20159;51.072;13.526;2023-05-07T09:04:53;6.40;;;5.72;;
33864;SDS011;20159;51.072;13.526;2023-05-07T09:07:19;6.03;;;5.43;;
33864;SDS011;20159;51.072;13.526;2023-05-07T09:09:46;5.32;;;4.82;;
33864;SDS011;20159;51.072;13.526;2023-05-07T09:12:11;4.80;;;4.30;;
33864;SDS011;20159;51.072;13.526;2023-05-07T09:14:37;4.30;;;3.90;;
33864;SDS011;20159;51.072;13.526;2023-05-07T09:17:03;4.82;;;4.30;;
33864;SDS011;20159;51.072;13.526;2023-05-07T09:19:28;4.60;;;4.20;;
33864;SDS011;20159;51.072;13.526;2023-05-07T09:22:01;4.97;;;4.57;;
33864;SDS011;20159;51.072;13.526;2023-05-07T09:24:28;4.75;;;4.35;;
33864;SDS011;20159;51.072;13.526;2023-05-07T09:26:58;5.30;;;4.78;;
33864;SDS011;20159;51.072;13.526;2023-05-07T09:29:25;5.93;;;5.43;;
33864;SDS011;20159;51.072;13.526;2023-05-07T09:31:51;6.82;;;6.13;;
33864;SDS011;20159;51.072;13.526;2023-05-07T09:34:16;7.07;;;6.38;;
33864;SDS011;20159;51.072;13.526;2023-05-07T09:36:42;8.85;;;7.43;;
33864;SDS011;20159;51.072;13.526;2023-05-07T09:39:07;10.70;;;8.30;;
33864;SDS011;20159;51.072;13.526;2023-05-07T09:41:33;8.98;;;7.47;;
33864;SDS011;20159;51.072;13.526;2023-05-07T09:44:09;11.63;;;9.80;;
33864;SDS011;20159;51.072;13.526;2023-05-07T09:46:34;10.65;;;9.55;;
33864;SDS011;20159;51.072;13.526;2023-05-07T09:49:03;9.18;;;8.27;;
33864;SDS011;20159;51.072;13.526;2023-05-07T09:51:38;9.90;;;8.90;;
33864;SDS011;20159;51.072;13.526;2023-05-07T09:54:08;8.00;;;7.18;;
33864;SDS011;20159;51.072;13.526;2023-05-07T09:56:34;8.80;;;7.53;;
33864;SDS011;20159;51.072;13.526;2023-05-07T09:59:02;7.53;;;6.82;;
33864;SDS011;20159;51.072;13.526;2023-05-07T10:01:30;7.30;;;6.60;;
33864;SDS011;20159;51.072;13.526;2023-05-07T10:03:56;7.25;;;6.55;;
33864;SDS011;20159;51.072;13.526;2023-05-07T10:06:24;7.47;;;6.40;;
33864;SDS011;20159;51.072;13.526;2023-05-07T10:08:50;7.03;;;6.32;;
33864;SDS011;20159;51.072;13.526;2023-05-07T10:11:17;8.68;;;7.78;;
33864;SDS011;20159;51.072;13.526;2023-05-07T10:13:44;9.48;;;8.55;;
33864;SDS011;20159;51.072;13.526;2023-05-07T10:16:12;8.93;;;8.13;;
33864;SDS011;20159;51.072;13.526;2023-05-07T10:18:40;8.18;;;7.40;;
33864;SDS011;20159;51.072;13.526;2023-05-07T10:21:16;7.25;;;6.55;;
33864;SDS011;20159;51.072;13.526;2023-05-07T10:23:48;7.30;;;6.60;;
33864;SDS011;20159;51.072;13.526;2023-05-07T10:26:15;7.68;;;6.97;;
33864;SDS011;20159;51.072;13.526;2023-05-07T10:28:47;7.30;;;6.60;;
33864;SDS011;20159;51.072;13.526;2023-05-07T10:34:00;49.78;;;42.25;;
33864;SDS011;20159;51.072;13.526;2023-05-07T10:36:27;45.75;;;36.65;;
33864;SDS011;20159;51.072;13.526;2023-05-07T10:38:53;25.67;;;21.58;;
33864;SDS011;20159;51.072;13.526;2023-05-07T10:41:19;13.13;;;11.77;;
33864;SDS011;20159;51.072;13.526;2023-05-07T10:43:45;8.73;;;7.93;;
33864;SDS011;20159;51.072;13.526;2023-05-07T10:46:13;10.27;;;7.32;;
33864;SDS011;20159;51.072;13.526;2023-05-07T10:49:25;7.55;;;6.85;;
33864;SDS011;20159;51.072;13.526;2023-05-07T10:56:42;11.77;;;10.77;;
33864;SDS011;20159;51.072;13.526;2023-05-07T11:02:04;7.65;;;6.95;;
33864;SDS011;20159;51.072;13.526;2023-05-07T11:15:00;7.18;;;6.50;;
33864;SDS011;20159;51.072;13.526;2023-05-07T11:17:33;7.80;;;7.10;;
33864;SDS011;20159;51.072;13.526;2023-05-07T11:19:59;6.47;;;5.80;;
33864;SDS011;20159;51.072;13.526;2023-05-07T11:25:04;7.65;;;6.95;;
33864;SDS011;20159;51.072;13.526;2023-05-07T11:27:31;7.35;;;6.65;;
33864;SDS011;20159;51.072;13.526;2023-05-07T11:29:57;6.65;;;6.05;;
33864;SDS011;20159;51.072;13.526;2023-05-07T11:32:26;6.63;;;6.03;;
33864;SDS011;20159;51.072;13.526;2023-05-07T11:34:54;7.28;;;6.57;;
33864;SDS011;20159;51.072;13.526;2023-05-07T11:37:22;6.90;;;5.90;;
33864;SDS011;20159;51.072;13.526;2023-05-07T11:39:49;7.65;;;6.93;;
33864;SDS011;20159;51.072;13.526;2023-05-07T11:42:27;7.90;;;7.20;;
33864;SDS011;20159;51.072;13.526;2023-05-07T11:44:59;7.25;;;6.63;;
33864;SDS011;20159;51.072;13.526;2023-05-07T11:47:25;7.15;;;6.45;;
33864;SDS011;20159;51.072;13.526;2023-05-07T11:49:51;7.43;;;6.72;;
33864;SDS011;20159;51.072;13.526;2023-05-07T11:52:19;6.45;;;5.88;;
33864;SDS011;20159;51.072;13.526;2023-05-07T11:54:55;6.68;;;6.07;;
33864;SDS011;20159;51.072;13.526;2023-05-07T11:57:22;6.35;;;5.78;;
33864;SDS011;20159;51.072;13.526;2023-05-07T11:59:52;6.78;;;6.18;;
33864;SDS011;20159;51.072;13.526;2023-05-07T12:02:18;5.45;;;4.95;;
33864;SDS011;20159;51.072;13.526;2023-05-07T12:04:44;6.55;;;5.95;;
33864;SDS011;20159;51.072;13.526;2023-05-07T12:07:13;6.63;;;6.03;;
33864;SDS011;20159;51.072;13.526;2023-05-07T12:09:42;6.70;;;6.10;;
33864;SDS011;20159;51.072;13.526;2023-05-07T12:12:08;7.90;;;7.20;;
33864;SDS011;20159;51.072;13.526;2023-05-07T12:14:41;6.72;;;6.03;;
33864;SDS011;20159;51.072;13.526;2023-05-07T12:17:10;6.22;;;5.63;;
33864;SDS011;20159;51.072;13.526;2023-05-07T12:19:37;8.45;;;5.45;;
33864;SDS011;20159;51.072;13.526;2023-05-07T12:22:03;6.68;;;6.07;;
33864;SDS011;20159;51.072;13.526;2023-05-07T12:27:11;6.18;;;5.20;;
33864;SDS011;20159;51.072;13.526;2023-05-07T12:29:38;5.88;;;5.28;;
33864;SDS011;20159;51.072;13.526;2023-05-07T12:32:06;5.85;;;5.28;;
33864;SDS011;20159;51.072;13.526;2023-05-07T12:34:32;5.93;;;5.38;;
33864;SDS011;20159;51.072;13.526;2023-05-07T12:36:57;5.32;;;4.93;;
33864;SDS011;20159;51.072;13.526;2023-05-07T12:39:28;8.15;;;5.32;;
33864;SDS011;20159;51.072;13.526;2023-05-07T12:41:57;6.30;;;5.70;;
33864;SDS011;20159;51.072;13.526;2023-05-07T12:44:25;5.85;;;5.35;;
33864;SDS011;20159;51.072;13.526;2023-05-07T12:46:57;5.68;;;5.18;;
33864;SDS011;20159;51.072;13.526;2023-05-07T12:49:25;5.50;;;4.97;;
33864;SDS011;20159;51.072;13.526;2023-05-07T12:51:53;6.22;;;5.22;;
33864;SDS011;20159;51.072;13.526;2023-05-07T12:54:29;5.78;;;5.28;;
33864;SDS011;20159;51.072;13.526;2023-05-07T12:57:16;5.93;;;5.43;;
33864;SDS011;20159;51.072;13.526;2023-05-07T12:59:45;6.32;;;5.72;;
33864;SDS011;20159;51.072;13.526;2023-05-07T13:02:10;6.50;;;5.90;;
33864;SDS011;20159;51.072;13.526;2023-05-07T13:04:36;7.03;;;6.32;;
33864;SDS011;20159;51.072;13.526;2023-05-07T13:07:02;6.15;;;5.65;;
33864;SDS011;20159;51.072;13.526;2023-05-07T13:09:28;6.30;;;5.70;;
33864;SDS011;20159;51.072;13.526;2023-05-07T13:11:57;6.43;;;5.82;;
33864;SDS011;20159;51.072;13.526;2023-05-07T13:14:26;5.78;;;5.28;;
33864;SDS011;20159;51.072;13.526;2023-05-07T13:16:54;5.60;;;5.10;;
33864;SDS011;20159;51.072;13.526;2023-05-07T13:19:20;5.32;;;4.82;;
33864;SDS011;20159;51.072;13.526;2023-05-07T13:21:45;6.15;;;5.55;;
33864;SDS011;20159;51.072;13.526;2023-05-07T13:24:11;5.90;;;5.40;;
33864;SDS011;20159;51.072;13.526;2023-05-07T13:26:36;6.20;;;5.63;;
33864;SDS011;20159;51.072;13.526;2023-05-07T13:29:02;6.13;;;5.53;;
33864;SDS011;20159;51.072;13.526;2023-05-07T13:31:48;6.85;;;5.55;;
33864;SDS011;20159;51.072;13.526;2023-05-07T13:34:13;5.68;;;5.18;;
33864;SDS011;20159;51.072;13.526;2023-05-07T13:36:42;5.50;;;5.07;;
33864;SDS011;20159;51.072;13.526;2023-05-07T13:39:07;6.00;;;5.50;;
33864;SDS011;20159;51.072;13.526;2023-05-07T13:41:33;5.35;;;4.85;;
33864;SDS011;20159;51.072;13.526;2023-05-07T13:44:07;5.50;;;4.97;;
33864;SDS011;20159;51.072;13.526;2023-05-07T13:46:37;4.82;;;4.35;;
33864;SDS011;20159;51.072;13.526;2023-05-07T13:49:02;5.22;;;4.72;;
33864;SDS011;20159;51.072;13.526;2023-05-07T13:51:27;4.88;;;4.47;;
33864;SDS011;20159;51.072;13.526;2023-05-07T13:53:53;5.47;;;4.97;;
33864;SDS011;20159;51.072;13.526;2023-05-07T13:56:19;4.70;;;4.30;;
33864;SDS011;20159;51.072;13.526;2023-05-07T13:58:48;5.22;;;4.75;;
33864;SDS011;20159;51.072;13.526;2023-05-07T14:01:13;5.15;;;4.65;;
33864;SDS011;20159;51.072;13.526;2023-05-07T14:03:39;5.50;;;5.00;;
33864;SDS011;20159;51.072;13.526;2023-05-07T14:06:10;4.90;;;4.40;;
33864;SDS011;20159;51.072;13.526;2023-05-07T14:08:38;4.82;;;4.43;;
33864;SDS011;20159;51.072;13.526;2023-05-07T14:11:04;4.53;;;4.13;;
33864;SDS011;20159;51.072;13.526;2023-05-07T14:13:30;4.70;;;4.30;;
33864;SDS011;20159;51.072;13.526;2023-05-07T14:15:55;4.80;;;4.30;;
33864;SDS011;20159;51.072;13.526;2023-05-07T14:18:41;5.15;;;4.53;;
33864;SDS011;20159;51.072;13.526;2023-05-07T14:21:07;4.57;;;4.18;;
33864;SDS011;20159;51.072;13.526;2023-05-07T14:23:34;4.40;;;4.00;;
33864;SDS011;20159;51.072;13.526;2023-05-07T14:26:00;4.85;;;4.35;;
33864;SDS011;20159;51.072;13.526;2023-05-07T14:28:25;4.68;;;4.28;;
33864;SDS011;20159;51.072;13.526;2023-05-07T14:30:51;5.03;;;4.53;;
33864;SDS011;20159;51.072;13.526;2023-05-07T14:33:16;4.57;;;4.18;;
33864;SDS011;20159;51.072;13.526;2023-05-07T14:35:42;4.20;;;3.85;;
33864;SDS011;20159;51.072;13.526;2023-05-07T14:38:12;4.13;;;3.65;;
33864;SDS011;20159;51.072;13.526;2023-05-07T14:40:41;4.10;;;3.70;;
33864;SDS011;20159;51.072;13.526;2023-05-07T14:43:07;4.43;;;4.03;;
33864;SDS011;20159;51.072;13.526;2023-05-07T14:45:35;4.70;;;3.63;;